Catherine Scan — V2OC9 — position and weather

sailwx.info

Track history (hours):
 
Tides and Currents Weather Stations Pressure Air Temp Water Temp Dewpoint Dewpoint Depression Visibility Wind Speed Wind Dir Waves Ship Positions

Catherine Scan

Last reported at 2018-Apr-25 21:45 UTC. Time now 2018-Apr-26 03:31 UTC.
Position N 29°45' W 095°11'.

; draft 4.7 m.

Type: Cargo ship. MMSI: 304010983.

Date/timePositionNaut miles runAvg speedWind from/ knotsBaromVisibWave heightAir tempDewpointWater temp
2018-Apr-25 21:45N 29°45' W 095°11'0 0.0
2018-Apr-25 19:28N 29°45' W 095°11'0 0.0
2018-Apr-25 19:00N 29°45' W 095°11'0 0.0
2018-Apr-25 16:46N 29°45' W 095°11'0 0.0
2018-Apr-25 14:42N 29°45' W 095°11'0 0.0
2018-Apr-25 14:19N 29°45' W 095°11'0 0.0
2018-Apr-25 13:43N 29°45' W 095°11'0 0.0
2018-Apr-25 13:30N 29°45' W 095°11'0 0.0
2018-Apr-25 12:57N 29°45' W 095°11'0 0.0
2018-Apr-25 12:28N 29°45' W 095°11'0 0.0
2018-Apr-25 11:58N 29°45' W 095°11'0 0.0
2018-Apr-25 11:30N 29°45' W 095°11'0 0.0
2018-Apr-25 10:39N 29°45' W 095°11'0 0.0
2018-Apr-25 10:30N 29°45' W 095°11'0 0.0
2018-Apr-25 09:52N 29°45' W 095°11'0 0.0
2018-Apr-25 08:24N 29°45' W 095°11'0 0.0
2018-Apr-25 07:51N 29°45' W 095°11'0 0.0
2018-Apr-25 07:27N 29°45' W 095°11'0 0.0
2018-Apr-25 04:58N 29°45' W 095°11'0 0.0
2018-Apr-25 04:21N 29°45' W 095°11'0 0.0
2018-Apr-24 22:01N 29°45' W 095°11'0 0.7
2018-Apr-24 22:00N 29°45' W 095°11'2 3.9
2018-Apr-24 21:30N 29°44' W 095°09'3 5.6
2018-Apr-24 21:00N 29°45' W 095°06'3 6.4
2018-Apr-24 20:30N 29°44' W 095°02'4 7.3
2018-Apr-24 20:00N 29°41' W 094°59'5 9.3
2018-Apr-24 19:30N 29°37' W 094°57'5 9.4
2018-Apr-24 19:00N 29°33' W 094°55'510.0
2018-Apr-24 18:31N 29°29' W 094°52'510.6
2018-Apr-24 18:00N 29°24' W 094°49'13 3.2
2018-Apr-24 13:56N 29°19' W 094°35'0 0.0
2018-Apr-24 13:26N 29°19' W 094°35'0 0.0
2018-Apr-24 09:14N 29°19' W 094°35'  
Track history (hours):
 
Tides and Currents Weather Stations Pressure Air Temp Water Temp Dewpoint Dewpoint Depression Visibility Wind Speed Wind Dir Waves Ship Positions

Catherine Scan

Last reported at 2018-Apr-25 21:45 UTC. Time now 2018-Apr-26 03:31 UTC.
Position N 29°45' W 095°11'.

; draft 4.7 m.

Type: Cargo ship. MMSI: 304010983.

Date/timePositionNaut miles runAvg speedWind from/ knotsBaromVisibWave heightAir tempDewpointWater temp
2018-Apr-25 21:45N 29°45' W 095°11'0 0.0
2018-Apr-25 19:28N 29°45' W 095°11'0 0.0
2018-Apr-25 19:00N 29°45' W 095°11'0 0.0
2018-Apr-25 16:46N 29°45' W 095°11'0 0.0
2018-Apr-25 14:42N 29°45' W 095°11'0 0.0
2018-Apr-25 14:19N 29°45' W 095°11'0 0.0
2018-Apr-25 13:43N 29°45' W 095°11'0 0.0
2018-Apr-25 13:30N 29°45' W 095°11'0 0.0
2018-Apr-25 12:57N 29°45' W 095°11'0 0.0
2018-Apr-25 12:28N 29°45' W 095°11'0 0.0
2018-Apr-25 11:58N 29°45' W 095°11'0 0.0
2018-Apr-25 11:30N 29°45' W 095°11'0 0.0
2018-Apr-25 10:39N 29°45' W 095°11'0 0.0
2018-Apr-25 10:30N 29°45' W 095°11'0 0.0
2018-Apr-25 09:52N 29°45' W 095°11'0 0.0
2018-Apr-25 08:24N 29°45' W 095°11'0 0.0
2018-Apr-25 07:51N 29°45' W 095°11'0 0.0
2018-Apr-25 07:27N 29°45' W 095°11'0 0.0
2018-Apr-25 04:58N 29°45' W 095°11'0 0.0
2018-Apr-25 04:21N 29°45' W 095°11'0 0.0
2018-Apr-24 22:01N 29°45' W 095°11'0 0.7
2018-Apr-24 22:00N 29°45' W 095°11'2 3.9
2018-Apr-24 21:30N 29°44' W 095°09'3 5.6
2018-Apr-24 21:00N 29°45' W 095°06'3 6.4
2018-Apr-24 20:30N 29°44' W 095°02'4 7.3
2018-Apr-24 20:00N 29°41' W 094°59'5 9.3
2018-Apr-24 19:30N 29°37' W 094°57'5 9.4
2018-Apr-24 19:00N 29°33' W 094°55'510.0
2018-Apr-24 18:31N 29°29' W 094°52'510.6
2018-Apr-24 18:00N 29°24' W 094°49'13 3.2
2018-Apr-24 13:56N 29°19' W 094°35'0 0.0
2018-Apr-24 13:26N 29°19' W 094°35'0 0.0
2018-Apr-24 09:14N 29°19' W 094°35'  

Dump ship's entire track history